createdAt,value
2022-09-30T00:01:06.112Z,99.72
2022-09-30T00:03:32.589Z,99.23
2022-09-30T00:06:05.645Z,99.76
2022-09-30T00:08:34.707Z,100.00
2022-09-30T00:11:05.570Z,100.00
2022-09-30T00:13:34.239Z,100.00
2022-09-30T00:16:01.628Z,100.00
2022-09-30T00:18:28.405Z,100.00
2022-09-30T00:20:55.325Z,100.00
2022-09-30T00:23:22.866Z,100.00
2022-09-30T00:25:49.970Z,100.00
2022-09-30T00:28:17.283Z,100.00
2022-09-30T00:30:43.777Z,100.00
2022-09-30T00:33:10.220Z,100.00
2022-09-30T00:35:38.084Z,100.00
2022-09-30T00:38:04.725Z,100.00
2022-09-30T00:40:31.487Z,100.00
2022-09-30T00:42:59.013Z,100.00
2022-09-30T00:45:28.781Z,100.00
2022-09-30T00:48:19.376Z,100.00
2022-09-30T00:50:49.581Z,100.00
2022-09-30T00:53:42.203Z,100.00
2022-09-30T00:56:17.121Z,100.00
2022-09-30T00:58:56.366Z,100.00
2022-09-30T01:01:24.129Z,100.00
2022-09-30T01:03:54.441Z,100.00
2022-09-30T01:06:23.296Z,100.00
2022-09-30T01:08:50.402Z,100.00
2022-09-30T01:11:17.288Z,100.00
2022-09-30T01:13:49.940Z,100.00
2022-09-30T01:16:53.913Z,100.00
2022-09-30T01:19:37.319Z,100.00
2022-09-30T01:22:03.675Z,100.00
2022-09-30T01:25:06.678Z,100.00
2022-09-30T01:27:57.102Z,100.00
2022-09-30T01:30:33.895Z,100.00
2022-09-30T01:33:19.554Z,100.00
2022-09-30T01:36:10.385Z,100.00
2022-09-30T01:39:11.021Z,100.00
2022-09-30T01:41:49.562Z,100.00
2022-09-30T01:44:28.099Z,100.00
2022-09-30T01:47:18.658Z,100.00
2022-09-30T01:50:01.309Z,100.00
2022-09-30T01:52:42.448Z,100.00
2022-09-30T01:55:46.127Z,100.00
2022-09-30T01:58:21.483Z,100.00
2022-09-30T02:00:52.722Z,100.00
2022-09-30T02:03:26.777Z,100.00
2022-09-30T02:06:02.359Z,100.00
2022-09-30T02:08:43.659Z,100.00
2022-09-30T02:11:18.323Z,100.00
2022-09-30T02:13:59.635Z,100.00
2022-09-30T02:16:32.860Z,100.00
2022-09-30T02:19:18.224Z,100.00
2022-09-30T02:21:51.516Z,100.00
2022-09-30T02:24:24.543Z,100.00
2022-09-30T02:26:54.807Z,100.00
2022-09-30T02:29:27.735Z,100.00
2022-09-30T02:32:00.076Z,100.00
2022-09-30T02:34:40.357Z,100.00
2022-09-30T02:37:16.151Z,100.00
2022-09-30T02:39:54.098Z,100.00
2022-09-30T02:42:26.715Z,100.00
2022-09-30T02:44:56.991Z,100.00
2022-09-30T02:47:26.947Z,100.00
2022-09-30T02:50:12.483Z,100.00
2022-09-30T02:52:54.230Z,100.00
2022-09-30T02:55:49.125Z,100.00
2022-09-30T02:58:19.965Z,100.00
2022-09-30T03:00:46.566Z,100.00
2022-09-30T03:03:19.919Z,100.00
2022-09-30T03:05:46.435Z,100.00
2022-09-30T03:08:12.982Z,100.00
2022-09-30T03:10:39.987Z,100.00
2022-09-30T03:13:12.684Z,100.00
2022-09-30T03:15:57.168Z,100.00
2022-09-30T03:19:06.402Z,100.00
2022-09-30T03:21:50.924Z,100.00
2022-09-30T03:24:26.715Z,100.00
2022-09-30T03:27:18.035Z,100.00
2022-09-30T03:30:01.844Z,100.00
2022-09-30T03:32:48.952Z,100.00
2022-09-30T03:35:28.116Z,100.00
2022-09-30T03:38:13.834Z,100.00
2022-09-30T03:40:49.791Z,100.00
2022-09-30T03:43:27.471Z,100.00
2022-09-30T03:46:10.233Z,100.00
2022-09-30T03:48:38.070Z,100.00
2022-09-30T03:51:05.993Z,100.00
2022-09-30T03:53:39.006Z,100.00
2022-09-30T03:56:05.628Z,100.00
2022-09-30T03:58:32.069Z,100.00
2022-09-30T04:00:59.034Z,100.00
2022-09-30T04:03:27.911Z,100.00
2022-09-30T04:05:54.361Z,100.00
2022-09-30T04:08:20.889Z,100.00
2022-09-30T04:10:47.330Z,100.00
2022-09-30T04:13:13.870Z,100.00
2022-09-30T04:15:40.660Z,100.00
2022-09-30T04:18:07.556Z,100.00
2022-09-30T04:20:34.005Z,100.00
2022-09-30T04:23:01.550Z,100.00
2022-09-30T04:25:28.787Z,100.00
2022-09-30T04:27:56.165Z,100.00
2022-09-30T04:30:26.394Z,100.00
2022-09-30T04:32:53.821Z,100.00
2022-09-30T04:35:20.619Z,100.00
2022-09-30T04:37:48.002Z,100.00
2022-09-30T04:40:16.150Z,100.00
2022-09-30T04:42:43.316Z,100.00
2022-09-30T04:45:11.310Z,100.00
2022-09-30T04:47:37.850Z,100.00
2022-09-30T04:50:05.674Z,100.00
2022-09-30T04:52:32.103Z,100.00
2022-09-30T04:54:58.774Z,100.00
2022-09-30T04:57:25.454Z,100.00
2022-09-30T04:59:51.980Z,100.00
2022-09-30T05:02:18.448Z,100.00
2022-09-30T05:04:45.037Z,100.00
2022-09-30T05:07:11.602Z,100.00
2022-09-30T05:09:38.208Z,100.00
2022-09-30T05:12:04.729Z,100.00
2022-09-30T05:14:31.202Z,100.00
2022-09-30T05:16:57.604Z,100.00
2022-09-30T05:19:24.247Z,100.00
2022-09-30T05:21:52.121Z,100.00
2022-09-30T05:24:18.732Z,100.00
2022-09-30T05:26:45.244Z,100.00
2022-09-30T05:29:12.062Z,100.00
2022-09-30T05:31:38.597Z,100.00
2022-09-30T05:34:05.145Z,100.00
2022-09-30T05:36:31.574Z,100.00
2022-09-30T05:38:57.981Z,100.00
2022-09-30T05:41:24.703Z,100.00
2022-09-30T05:43:51.462Z,100.00
2022-09-30T05:46:19.941Z,100.00
2022-09-30T05:48:46.926Z,100.00
2022-09-30T05:51:13.803Z,100.00
2022-09-30T05:53:41.180Z,100.00
2022-09-30T05:56:08.731Z,100.00
2022-09-30T05:58:36.339Z,100.00
2022-09-30T06:01:13.230Z,100.00
2022-09-30T06:03:41.693Z,100.00
2022-09-30T06:06:08.338Z,100.00
2022-09-30T06:08:35.120Z,100.00
2022-09-30T06:11:02.073Z,100.00
2022-09-30T06:13:28.841Z,100.00
2022-09-30T06:15:57.133Z,100.00
2022-09-30T06:18:27.045Z,100.00
2022-09-30T06:21:00.243Z,100.00
2022-09-30T06:23:27.230Z,100.00
2022-09-30T06:25:54.890Z,100.00
2022-09-30T06:28:21.837Z,100.00
2022-09-30T06:30:48.666Z,100.00
2022-09-30T06:33:15.832Z,100.00
2022-09-30T06:35:42.840Z,100.00
2022-09-30T06:38:10.595Z,100.00
2022-09-30T06:40:38.027Z,100.00
2022-09-30T06:43:05.184Z,100.00
2022-09-30T06:45:33.426Z,100.00
2022-09-30T06:48:01.811Z,100.00
2022-09-30T06:50:29.166Z,100.00
2022-09-30T06:53:00.694Z,100.00
2022-09-30T06:55:28.792Z,100.00
2022-09-30T06:57:56.181Z,100.00
2022-09-30T07:00:24.232Z,100.00
2022-09-30T07:02:50.738Z,100.00
2022-09-30T07:05:17.506Z,100.00
2022-09-30T07:07:43.932Z,100.00
2022-09-30T07:10:11.284Z,99.74
2022-09-30T07:12:43.720Z,100.00
2022-09-30T07:15:13.733Z,99.67
2022-09-30T07:17:40.797Z,98.81
2022-09-30T07:20:08.323Z,99.84
2022-09-30T07:22:34.773Z,99.60
2022-09-30T07:25:05.291Z,97.66
2022-09-30T07:27:33.568Z,98.06
2022-09-30T07:30:12.575Z,97.34
2022-09-30T07:32:40.849Z,98.03
2022-09-30T07:35:07.566Z,97.67
2022-09-30T07:37:36.304Z,98.55
2022-09-30T07:40:07.466Z,97.42
2022-09-30T07:42:37.082Z,97.92
2022-09-30T07:45:04.463Z,97.07
2022-09-30T07:47:30.888Z,97.18
2022-09-30T07:49:57.618Z,96.60
2022-09-30T07:52:24.057Z,96.33
2022-09-30T07:54:50.926Z,96.74
2022-09-30T07:57:17.516Z,95.34
2022-09-30T07:59:44.131Z,96.03
2022-09-30T08:02:18.290Z,95.71
2022-09-30T08:04:45.592Z,95.70
2022-09-30T08:07:14.317Z,95.47
2022-09-30T08:09:40.860Z,94.63
2022-09-30T08:12:07.390Z,94.76
2022-09-30T08:14:33.910Z,96.33
2022-09-30T08:17:00.917Z,96.34
2022-09-30T08:19:29.368Z,95.20
2022-09-30T08:21:56.389Z,94.58
2022-09-30T08:24:24.419Z,93.98
2022-09-30T08:26:52.104Z,92.48
2022-09-30T08:29:35.850Z,93.67
2022-09-30T08:32:05.527Z,93.97
2022-09-30T08:34:35.634Z,92.54
2022-09-30T08:37:08.417Z,93.20
2022-09-30T08:39:36.621Z,93.06
2022-09-30T08:42:36.623Z,91.91
2022-09-30T08:45:13.336Z,91.22
2022-09-30T08:47:50.485Z,90.48
2022-09-30T08:50:36.142Z,88.19
2022-09-30T08:53:11.530Z,88.37
2022-09-30T08:55:46.352Z,87.80
2022-09-30T08:58:38.790Z,89.80
2022-09-30T09:01:29.224Z,89.79
2022-09-30T09:03:57.958Z,89.77
2022-09-30T09:06:36.225Z,87.83
2022-09-30T09:09:32.961Z,87.99
2022-09-30T09:12:22.668Z,87.82
2022-09-30T09:15:09.233Z,86.84
2022-09-30T09:18:18.770Z,86.19
2022-09-30T09:20:51.214Z,86.77
2022-09-30T09:23:17.674Z,86.73
2022-09-30T09:25:46.327Z,86.55
2022-09-30T09:28:36.976Z,85.87
2022-09-30T09:31:04.545Z,85.62
2022-09-30T09:33:35.236Z,86.10
2022-09-30T09:36:12.863Z,85.65
2022-09-30T09:38:39.251Z,85.33
2022-09-30T09:41:42.325Z,84.86
2022-09-30T09:44:08.668Z,83.95
2022-09-30T09:47:07.899Z,84.89
2022-09-30T09:49:41.624Z,83.83
2022-09-30T09:52:26.570Z,81.97
2022-09-30T09:54:56.715Z,81.40
2022-09-30T09:57:27.709Z,83.51
2022-09-30T10:00:31.687Z,80.78
2022-09-30T10:03:04.105Z,79.67
2022-09-30T10:05:39.349Z,81.55
2022-09-30T10:08:16.853Z,80.30
2022-09-30T10:10:47.270Z,81.14
2022-09-30T10:13:31.817Z,80.13
2022-09-30T10:16:00.917Z,78.75
2022-09-30T10:18:34.371Z,77.19
2022-09-30T10:21:05.593Z,78.10
2022-09-30T10:23:38.022Z,78.02
2022-09-30T10:26:18.013Z,77.94
2022-09-30T10:28:56.189Z,77.65
2022-09-30T10:31:25.816Z,76.25
2022-09-30T10:34:18.116Z,75.93
2022-09-30T10:36:45.684Z,76.29
2022-09-30T10:39:26.761Z,75.37
2022-09-30T10:42:25.953Z,75.32
2022-09-30T10:44:57.013Z,75.49
2022-09-30T10:47:26.811Z,75.10
2022-09-30T10:50:13.163Z,74.24
2022-09-30T10:52:47.370Z,71.69
2022-09-30T10:55:19.931Z,71.53
2022-09-30T10:57:47.611Z,69.61
2022-09-30T11:00:15.862Z,67.72
2022-09-30T11:03:18.323Z,67.12
2022-09-30T11:05:48.145Z,67.19
2022-09-30T11:08:26.708Z,69.60
2022-09-30T11:11:10.178Z,68.01
2022-09-30T11:13:54.652Z,71.02
2022-09-30T11:16:45.213Z,70.12
2022-09-30T11:19:24.401Z,70.43
2022-09-30T11:22:09.228Z,68.51
2022-09-30T11:24:41.412Z,69.21
2022-09-30T11:27:38.181Z,67.24
2022-09-30T11:30:21.290Z,68.04
2022-09-30T11:33:14.721Z,66.16
2022-09-30T11:35:56.186Z,63.62
2022-09-30T11:38:44.165Z,63.73
2022-09-30T11:41:26.815Z,64.01
2022-09-30T11:44:15.182Z,63.84
2022-09-30T11:46:47.683Z,62.75
2022-09-30T11:49:52.454Z,65.73
2022-09-30T11:52:46.602Z,64.16
2022-09-30T11:55:19.160Z,63.35
2022-09-30T11:58:08.456Z,65.14
2022-09-30T12:00:51.422Z,65.11
2022-09-30T12:03:30.049Z,62.27
2022-09-30T12:06:02.375Z,60.12
2022-09-30T12:08:31.702Z,58.99
2022-09-30T12:11:09.230Z,54.68
2022-09-30T12:13:39.576Z,51.51
2022-09-30T12:16:21.893Z,53.72
2022-09-30T12:19:00.764Z,53.67
2022-09-30T12:21:37.523Z,52.56
2022-09-30T12:24:17.556Z,53.37
2022-09-30T12:26:46.022Z,55.19
2022-09-30T12:29:35.846Z,56.32
2022-09-30T12:32:29.710Z,57.19
2022-09-30T12:35:15.828Z,57.80
2022-09-30T12:37:45.375Z,56.63
2022-09-30T12:40:56.089Z,58.27
2022-09-30T12:44:14.647Z,56.22
2022-09-30T12:47:01.955Z,56.91
2022-09-30T12:49:31.323Z,58.19
2022-09-30T12:52:05.134Z,57.71
2022-09-30T12:54:37.469Z,59.42
2022-09-30T12:57:09.236Z,57.41
2022-09-30T12:59:58.067Z,57.02
2022-09-30T13:02:41.814Z,55.65
2022-09-30T13:05:26.782Z,56.45
2022-09-30T13:08:05.602Z,56.55
2022-09-30T13:10:33.153Z,58.21
2022-09-30T13:13:11.391Z,57.29
2022-09-30T13:15:43.237Z,55.93
2022-09-30T13:18:27.964Z,57.53
2022-09-30T13:21:08.196Z,54.42
2022-09-30T13:23:57.656Z,55.30
2022-09-30T13:26:33.634Z,57.76
2022-09-30T13:29:00.351Z,55.91
2022-09-30T13:31:32.298Z,55.14
2022-09-30T13:34:01.911Z,55.87
2022-09-30T13:36:52.968Z,54.87
2022-09-30T13:39:28.149Z,56.71
2022-09-30T13:42:06.714Z,55.42
2022-09-30T13:44:33.072Z,57.24
2022-09-30T13:47:08.595Z,55.37
2022-09-30T13:49:49.554Z,55.73
2022-09-30T13:52:27.441Z,56.28
2022-09-30T13:54:56.314Z,57.96
2022-09-30T13:57:36.329Z,57.33
2022-09-30T14:00:07.390Z,57.40
2022-09-30T14:03:11.268Z,57.25
2022-09-30T14:05:44.981Z,57.35
2022-09-30T14:08:12.322Z,58.29
2022-09-30T14:11:07.200Z,58.27
2022-09-30T14:13:51.029Z,57.54
2022-09-30T14:16:44.834Z,57.85
2022-09-30T14:19:23.959Z,57.76
2022-09-30T14:21:52.259Z,58.08
2022-09-30T14:24:27.886Z,57.40
2022-09-30T14:27:31.650Z,58.52
2022-09-30T14:30:13.372Z,57.88
2022-09-30T14:33:10.640Z,58.33
2022-09-30T14:35:41.536Z,58.77
2022-09-30T14:38:17.852Z,60.89
2022-09-30T14:40:54.578Z,59.99
2022-09-30T14:43:37.823Z,60.88
2022-09-30T14:46:26.652Z,61.12
2022-09-30T14:48:56.658Z,59.86
2022-09-30T14:51:24.070Z,59.31
2022-09-30T14:53:57.538Z,59.16
2022-09-30T14:56:35.244Z,59.96
2022-09-30T14:59:17.643Z,57.99
2022-09-30T15:01:45.824Z,59.74
2022-09-30T15:04:16.699Z,56.36
2022-09-30T15:06:47.576Z,57.48
2022-09-30T15:09:26.911Z,59.22
2022-09-30T15:11:53.569Z,58.14
2022-09-30T15:14:23.643Z,59.17
2022-09-30T15:16:53.102Z,59.05
2022-09-30T15:19:29.766Z,59.92
2022-09-30T15:22:02.305Z,58.18
2022-09-30T15:24:31.436Z,57.57
2022-09-30T15:27:00.029Z,59.51
2022-09-30T15:29:26.867Z,60.61
2022-09-30T15:32:00.207Z,56.51
2022-09-30T15:34:28.697Z,59.25
2022-09-30T15:37:06.438Z,61.19
2022-09-30T15:40:00.487Z,59.36
2022-09-30T15:42:36.039Z,61.40
2022-09-30T15:45:24.545Z,61.43
2022-09-30T15:47:57.984Z,58.80
2022-09-30T15:50:45.615Z,60.64
2022-09-30T15:53:25.510Z,59.49
2022-09-30T15:55:55.476Z,58.84
2022-09-30T15:58:38.003Z,60.58
2022-09-30T16:01:33.117Z,60.63
2022-09-30T16:04:09.409Z,62.21
2022-09-30T16:06:41.920Z,63.37
2022-09-30T16:09:20.922Z,63.23
2022-09-30T16:12:08.809Z,62.75
2022-09-30T16:14:43.049Z,63.31
2022-09-30T16:17:21.515Z,63.30
2022-09-30T16:19:52.256Z,64.60
2022-09-30T16:22:35.274Z,63.54
2022-09-30T16:25:28.640Z,65.89
2022-09-30T16:28:09.093Z,65.93
2022-09-30T16:30:38.746Z,67.52
